sensor_id;sensor_type;location;lat;lon;timestamp;pressure;altitude;pressure_sealevel;temperature;humidity
1616;BME280;801;47.982;7.810;2023-05-25T00:02:23;98867.13;;;13.47;100.00
1616;BME280;801;47.982;7.810;2023-05-25T00:04:50;98876.31;;;13.36;100.00
1616;BME280;801;47.982;7.810;2023-05-25T00:07:16;98870.91;;;13.41;100.00
1616;BME280;801;47.982;7.810;2023-05-25T00:09:43;98868.75;;;13.13;100.00
1616;BME280;801;47.982;7.810;2023-05-25T00:12:11;98871.16;;;13.19;100.00
1616;BME280;801;47.982;7.810;2023-05-25T00:14:38;98869.81;;;13.01;98.83
1616;BME280;801;47.982;7.810;2023-05-25T00:17:05;98869.53;;;12.87;95.16
1616;BME280;801;47.982;7.810;2023-05-25T00:19:34;98857.41;;;13.00;94.63
1616;BME280;801;47.982;7.810;2023-05-25T00:22:00;98865.50;;;12.85;92.00
1616;BME280;801;47.982;7.810;2023-05-25T00:24:28;98860.09;;;13.05;90.21
1616;BME280;801;47.982;7.810;2023-05-25T00:26:54;98853.09;;;13.09;89.64
1616;BME280;801;47.982;7.810;2023-05-25T00:29:21;98846.63;;;13.00;87.69
1616;BME280;801;47.982;7.810;2023-05-25T00:31:49;98853.38;;;13.13;88.64
1616;BME280;801;47.982;7.810;2023-05-25T00:34:16;98856.59;;;13.25;87.85
1616;BME280;801;47.982;7.810;2023-05-25T00:36:42;98859.31;;;13.31;88.64
1616;BME280;801;47.982;7.810;2023-05-25T00:39:12;98861.72;;;13.37;89.49
1616;BME280;801;47.982;7.810;2023-05-25T00:41:41;98853.63;;;13.47;88.84
1616;BME280;801;47.982;7.810;2023-05-25T00:44:09;98865.47;;;13.62;88.28
1616;BME280;801;47.982;7.810;2023-05-25T00:46:36;98864.97;;;13.60;87.71
1616;BME280;801;47.982;7.810;2023-05-25T00:49:04;98852.56;;;13.54;86.20
1616;BME280;801;47.982;7.810;2023-05-25T00:51:31;98861.16;;;13.61;89.27
1616;BME280;801;47.982;7.810;2023-05-25T00:53:58;98854.97;;;13.50;86.69
1616;BME280;801;47.982;7.810;2023-05-25T00:56:28;98860.69;;;13.33;86.05
1616;BME280;801;47.982;7.810;2023-05-25T00:58:56;98845.53;;;13.27;87.59
1616;BME280;801;47.982;7.810;2023-05-25T01:01:26;98857.41;;;13.21;86.59
1616;BME280;801;47.982;7.810;2023-05-25T01:03:57;98852.53;;;13.13;87.56
1616;BME280;801;47.982;7.810;2023-05-25T01:06:29;98841.22;;;12.70;87.01
1616;BME280;801;47.982;7.810;2023-05-25T01:09:00;98843.41;;;12.93;88.47
1616;BME280;801;47.982;7.810;2023-05-25T01:11:31;98843.38;;;12.98;87.86
1616;BME280;801;47.982;7.810;2023-05-25T01:13:58;98847.16;;;12.66;87.76
1616;BME280;801;47.982;7.810;2023-05-25T01:16:25;98836.88;;;12.58;88.26
1616;BME280;801;47.982;7.810;2023-05-25T01:18:52;98836.06;;;12.53;86.96
1616;BME280;801;47.982;7.810;2023-05-25T01:21:21;98832.81;;;12.40;88.46
1616;BME280;801;47.982;7.810;2023-05-25T01:23:55;98838.47;;;12.44;88.33
1616;BME280;801;47.982;7.810;2023-05-25T01:26:25;98827.91;;;12.27;89.61
1616;BME280;801;47.982;7.810;2023-05-25T01:28:55;98834.13;;;12.28;89.94
1616;BME280;801;47.982;7.810;2023-05-25T01:31:22;98832.75;;;12.20;89.77
1616;BME280;801;47.982;7.810;2023-05-25T01:33:50;98838.44;;;12.29;90.51
1616;BME280;801;47.982;7.810;2023-05-25T01:36:17;98837.59;;;12.23;91.51
1616;BME280;801;47.982;7.810;2023-05-25T01:38:45;98836.53;;;12.24;91.08
1616;BME280;801;47.982;7.810;2023-05-25T01:41:11;98830.34;;;12.29;90.89
1616;BME280;801;47.982;7.810;2023-05-25T01:43:38;98839.75;;;12.21;92.28
1616;BME280;801;47.982;7.810;2023-05-25T01:46:11;98829.53;;;12.23;91.85
1616;BME280;801;47.982;7.810;2023-05-25T01:48:45;98836.00;;;12.22;91.43
1616;BME280;801;47.982;7.810;2023-05-25T01:51:22;98835.41;;;12.04;93.05
1616;BME280;801;47.982;7.810;2023-05-25T01:53:57;98834.63;;;12.14;92.39
1616;BME280;801;47.982;7.810;2023-05-25T01:56:26;98829.06;;;12.41;91.16
1616;BME280;801;47.982;7.810;2023-05-25T01:58:54;98828.47;;;12.24;92.33
1616;BME280;801;47.982;7.810;2023-05-25T02:01:22;98829.25;;;12.24;91.59
1616;BME280;801;47.982;7.810;2023-05-25T02:03:49;98825.50;;;12.31;89.49
1616;BME280;801;47.982;7.810;2023-05-25T02:06:16;98831.16;;;12.29;89.04
1616;BME280;801;47.982;7.810;2023-05-25T02:08:43;98818.97;;;12.11;90.74
1616;BME280;801;47.982;7.810;2023-05-25T02:11:11;98818.97;;;12.06;90.78
1616;BME280;801;47.982;7.810;2023-05-25T02:13:38;98827.13;;;12.27;88.75
1616;BME280;801;47.982;7.810;2023-05-25T02:16:05;98824.88;;;12.03;90.17
1616;BME280;801;47.982;7.810;2023-05-25T02:18:32;98817.94;;;12.17;90.33
1616;BME280;801;47.982;7.810;2023-05-25T02:20:58;98816.28;;;12.11;90.85
1616;BME280;801;47.982;7.810;2023-05-25T02:23:25;98805.50;;;12.06;91.48
1616;BME280;801;47.982;7.810;2023-05-25T02:25:51;98805.22;;;12.08;92.41
1616;BME280;801;47.982;7.810;2023-05-25T02:28:19;98813.06;;;12.14;92.96
1616;BME280;801;47.982;7.810;2023-05-25T02:30:46;98805.47;;;11.96;93.58
1616;BME280;801;47.982;7.810;2023-05-25T02:33:12;98815.97;;;11.92;94.22
1616;BME280;801;47.982;7.810;2023-05-25T02:35:39;98816.78;;;11.93;94.25
1616;BME280;801;47.982;7.810;2023-05-25T02:38:06;98809.75;;;11.92;95.00
1616;BME280;801;47.982;7.810;2023-05-25T02:40:32;98812.75;;;12.05;94.59
1616;BME280;801;47.982;7.810;2023-05-25T02:42:59;98812.41;;;11.87;96.16
1616;BME280;801;47.982;7.810;2023-05-25T02:45:26;98808.31;;;11.74;96.84
1616;BME280;801;47.982;7.810;2023-05-25T02:47:53;98817.78;;;11.87;97.91
1616;BME280;801;47.982;7.810;2023-05-25T02:50:19;98801.31;;;11.78;98.01
1616;BME280;801;47.982;7.810;2023-05-25T02:52:46;98807.00;;;11.81;98.73
1616;BME280;801;47.982;7.810;2023-05-25T02:55:12;98803.25;;;11.88;99.78
1616;BME280;801;47.982;7.810;2023-05-25T02:57:39;98815.34;;;11.85;99.41
1616;BME280;801;47.982;7.810;2023-05-25T03:00:07;98807.00;;;11.81;100.00
1616;BME280;801;47.982;7.810;2023-05-25T03:02:36;98810.41;;;11.61;100.00
1616;BME280;801;47.982;7.810;2023-05-25T03:05:03;98803.13;;;11.57;100.00
1616;BME280;801;47.982;7.810;2023-05-25T03:07:30;98815.81;;;11.72;100.00
1616;BME280;801;47.982;7.810;2023-05-25T03:09:57;98828.59;;;11.92;100.00
1616;BME280;801;47.982;7.810;2023-05-25T03:12:23;98828.06;;;11.90;100.00
1616;BME280;801;47.982;7.810;2023-05-25T03:14:50;98826.34;;;11.78;100.00
1616;BME280;801;47.982;7.810;2023-05-25T03:17:16;98822.31;;;11.76;100.00
1616;BME280;801;47.982;7.810;2023-05-25T03:19:44;98829.59;;;11.75;100.00
1616;BME280;801;47.982;7.810;2023-05-25T03:22:11;98825.13;;;11.49;100.00
1616;BME280;801;47.982;7.810;2023-05-25T03:24:37;98832.09;;;11.39;100.00
1616;BME280;801;47.982;7.810;2023-05-25T03:27:09;98838.69;;;11.64;100.00
1616;BME280;801;47.982;7.810;2023-05-25T03:29:36;98834.41;;;11.73;100.00
1616;BME280;801;47.982;7.810;2023-05-25T03:32:02;98827.38;;;11.62;100.00
1616;BME280;801;47.982;7.810;2023-05-25T03:34:29;98835.13;;;11.58;100.00
1616;BME280;801;47.982;7.810;2023-05-25T03:37:00;98828.94;;;11.53;100.00
1616;BME280;801;47.982;7.810;2023-05-25T03:39:26;98842.97;;;11.65;100.00
1616;BME280;801;47.982;7.810;2023-05-25T03:41:53;98840.75;;;11.52;100.00
1616;BME280;801;47.982;7.810;2023-05-25T03:44:20;98843.50;;;11.57;100.00
1616;BME280;801;47.982;7.810;2023-05-25T03:46:46;98842.03;;;11.39;100.00
1616;BME280;801;47.982;7.810;2023-05-25T03:49:13;98850.13;;;11.39;100.00
1616;BME280;801;47.982;7.810;2023-05-25T03:51:39;98846.19;;;11.57;100.00
1616;BME280;801;47.982;7.810;2023-05-25T03:54:07;98849.94;;;11.56;100.00
1616;BME280;801;47.982;7.810;2023-05-25T03:56:34;98853.94;;;11.91;100.00
1616;BME280;801;47.982;7.810;2023-05-25T03:59:00;98850.81;;;11.67;100.00
1616;BME280;801;47.982;7.810;2023-05-25T04:01:27;98854.16;;;11.41;100.00
1616;BME280;801;47.982;7.810;2023-05-25T04:03:54;98861.50;;;11.56;100.00
1616;BME280;801;47.982;7.810;2023-05-25T04:06:21;98859.59;;;11.52;100.00
1616;BME280;801;47.982;7.810;2023-05-25T04:08:49;98865.41;;;11.33;100.00
1616;BME280;801;47.982;7.810;2023-05-25T04:11:17;98866.09;;;11.56;100.00
1616;BME280;801;47.982;7.810;2023-05-25T04:13:44;98860.94;;;11.49;100.00
1616;BME280;801;47.982;7.810;2023-05-25T04:16:10;98868.72;;;11.46;100.00
1616;BME280;801;47.982;7.810;2023-05-25T04:18:37;98863.22;;;11.68;100.00
1616;BME280;801;47.982;7.810;2023-05-25T04:21:04;98870.72;;;11.66;100.00
1616;BME280;801;47.982;7.810;2023-05-25T04:23:30;98872.50;;;11.50;100.00
1616;BME280;801;47.982;7.810;2023-05-25T04:25:58;98868.88;;;11.71;100.00
1616;BME280;801;47.982;7.810;2023-05-25T04:28:26;98879.41;;;11.35;100.00
1616;BME280;801;47.982;7.810;2023-05-25T04:30:53;98872.06;;;10.93;100.00
1616;BME280;801;47.982;7.810;2023-05-25T04:33:21;98880.84;;;11.11;100.00
1616;BME280;801;47.982;7.810;2023-05-25T04:35:48;98875.03;;;11.24;100.00
1616;BME280;801;47.982;7.810;2023-05-25T04:38:16;98881.50;;;11.28;100.00
1616;BME280;801;47.982;7.810;2023-05-25T04:40:42;98881.66;;;11.49;100.00
1616;BME280;801;47.982;7.810;2023-05-25T04:43:10;98882.22;;;11.51;100.00
1616;BME280;801;47.982;7.810;2023-05-25T04:45:39;98893.28;;;11.22;100.00
1616;BME280;801;47.982;7.810;2023-05-25T04:48:05;98893.66;;;11.36;100.00
1616;BME280;801;47.982;7.810;2023-05-25T04:50:32;98889.25;;;11.57;100.00
1616;BME280;801;47.982;7.810;2023-05-25T04:52:58;98890.34;;;11.61;100.00
1616;BME280;801;47.982;7.810;2023-05-25T04:55:25;98882.78;;;11.20;100.00
1616;BME280;801;47.982;7.810;2023-05-25T04:57:52;98886.44;;;11.41;100.00
1616;BME280;801;47.982;7.810;2023-05-25T05:00:19;98888.16;;;11.20;100.00
1616;BME280;801;47.982;7.810;2023-05-25T05:02:47;98895.00;;;11.33;100.00
1616;BME280;801;47.982;7.810;2023-05-25T05:05:14;98895.53;;;11.30;100.00
1616;BME280;801;47.982;7.810;2023-05-25T05:07:40;98900.50;;;11.49;100.00
1616;BME280;801;47.982;7.810;2023-05-25T05:10:07;98903.28;;;11.64;100.00
1616;BME280;801;47.982;7.810;2023-05-25T05:12:34;98899.34;;;11.77;100.00
1616;BME280;801;47.982;7.810;2023-05-25T05:15:01;98898.28;;;11.83;100.00
1616;BME280;801;47.982;7.810;2023-05-25T05:17:27;98905.66;;;11.55;100.00
1616;BME280;801;47.982;7.810;2023-05-25T05:19:56;98907.53;;;11.55;100.00
1616;BME280;801;47.982;7.810;2023-05-25T05:22:22;98904.88;;;11.60;100.00
1616;BME280;801;47.982;7.810;2023-05-25T05:24:49;98914.88;;;11.70;100.00
1616;BME280;801;47.982;7.810;2023-05-25T05:27:16;98912.41;;;11.63;100.00
1616;BME280;801;47.982;7.810;2023-05-25T05:29:42;98909.22;;;11.66;100.00
1616;BME280;801;47.982;7.810;2023-05-25T05:32:09;98912.50;;;11.73;100.00
1616;BME280;801;47.982;7.810;2023-05-25T05:34:36;98916.44;;;11.60;100.00
1616;BME280;801;47.982;7.810;2023-05-25T05:37:04;98915.56;;;11.50;100.00
1616;BME280;801;47.982;7.810;2023-05-25T05:39:30;98917.78;;;11.58;100.00
1616;BME280;801;47.982;7.810;2023-05-25T05:41:57;98913.91;;;11.43;100.00
1616;BME280;801;47.982;7.810;2023-05-25T05:44:23;98914.72;;;11.81;100.00
1616;BME280;801;47.982;7.810;2023-05-25T05:46:51;98910.59;;;11.74;100.00
1616;BME280;801;47.982;7.810;2023-05-25T05:49:24;98914.59;;;11.66;100.00
1616;BME280;801;47.982;7.810;2023-05-25T05:51:50;98903.28;;;11.64;100.00
1616;BME280;801;47.982;7.810;2023-05-25T05:54:18;98907.91;;;11.74;100.00
1616;BME280;801;47.982;7.810;2023-05-25T05:56:45;98909.34;;;11.87;100.00
1616;BME280;801;47.982;7.810;2023-05-25T05:59:11;98906.31;;;11.78;100.00
1616;BME280;801;47.982;7.810;2023-05-25T06:01:38;98894.78;;;11.82;100.00
1616;BME280;801;47.982;7.810;2023-05-25T06:04:07;98885.88;;;11.77;100.00
1616;BME280;801;47.982;7.810;2023-05-25T06:06:33;98895.13;;;11.91;100.00
1616;BME280;801;47.982;7.810;2023-05-25T06:09:01;98892.19;;;11.93;100.00
1616;BME280;801;47.982;7.810;2023-05-25T06:11:32;98897.25;;;11.89;100.00
1616;BME280;801;47.982;7.810;2023-05-25T06:13:59;98896.56;;;12.14;100.00
1616;BME280;801;47.982;7.810;2023-05-25T06:16:26;98894.88;;;11.98;100.00
1616;BME280;801;47.982;7.810;2023-05-25T06:18:52;98894.31;;;11.91;100.00
1616;BME280;801;47.982;7.810;2023-05-25T06:21:19;98904.06;;;11.97;100.00
1616;BME280;801;47.982;7.810;2023-05-25T06:23:45;98897.91;;;12.07;100.00
1616;BME280;801;47.982;7.810;2023-05-25T06:26:13;98899.56;;;12.18;100.00
1616;BME280;801;47.982;7.810;2023-05-25T06:28:40;98907.94;;;12.27;100.00
1616;BME280;801;47.982;7.810;2023-05-25T06:31:07;98911.50;;;12.37;100.00
1616;BME280;801;47.982;7.810;2023-05-25T06:33:33;98912.28;;;12.33;100.00
1616;BME280;801;47.982;7.810;2023-05-25T06:36:00;98921.44;;;12.32;100.00
1616;BME280;801;47.982;7.810;2023-05-25T06:38:27;98917.16;;;12.41;100.00
1616;BME280;801;47.982;7.810;2023-05-25T06:40:54;98910.22;;;12.55;100.00
1616;BME280;801;47.982;7.810;2023-05-25T06:43:20;98921.25;;;12.49;100.00
1616;BME280;801;47.982;7.810;2023-05-25T06:45:48;98913.16;;;12.59;100.00
1616;BME280;801;47.982;7.810;2023-05-25T06:48:15;98912.13;;;12.65;100.00
1616;BME280;801;47.982;7.810;2023-05-25T06:50:41;98917.75;;;12.53;100.00
1616;BME280;801;47.982;7.810;2023-05-25T06:53:08;98931.25;;;12.58;100.00
1616;BME280;801;47.982;7.810;2023-05-25T06:55:35;98936.13;;;12.72;100.00
1616;BME280;801;47.982;7.810;2023-05-25T06:58:01;98936.16;;;12.87;100.00
1616;BME280;801;47.982;7.810;2023-05-25T07:00:28;98931.81;;;12.71;100.00
1616;BME280;801;47.982;7.810;2023-05-25T07:02:56;98933.50;;;13.07;100.00
1616;BME280;801;47.982;7.810;2023-05-25T07:05:22;98929.69;;;12.88;100.00
1616;BME280;801;47.982;7.810;2023-05-25T07:07:49;98925.94;;;13.09;100.00
1616;BME280;801;47.982;7.810;2023-05-25T07:10:15;98935.91;;;12.88;100.00
1616;BME280;801;47.982;7.810;2023-05-25T07:12:42;98928.09;;;13.07;100.00
1616;BME280;801;47.982;7.810;2023-05-25T07:15:09;98934.59;;;13.12;100.00
1616;BME280;801;47.982;7.810;2023-05-25T07:17:37;98947.56;;;13.20;100.00
1616;BME280;801;47.982;7.810;2023-05-25T07:20:06;98944.09;;;13.40;100.00
1616;BME280;801;47.982;7.810;2023-05-25T07:22:33;98949.47;;;13.45;100.00
1616;BME280;801;47.982;7.810;2023-05-25T07:24:59;98944.34;;;13.38;100.00
1616;BME280;801;47.982;7.810;2023-05-25T07:27:26;98944.34;;;13.43;100.00
1616;BME280;801;47.982;7.810;2023-05-25T07:29:52;98943.56;;;13.53;100.00
1616;BME280;801;47.982;7.810;2023-05-25T07:32:19;98940.00;;;13.53;100.00
1616;BME280;801;47.982;7.810;2023-05-25T07:34:46;98941.63;;;13.74;100.00
1616;BME280;801;47.982;7.810;2023-05-25T07:37:13;98940.31;;;13.66;100.00
1616;BME280;801;47.982;7.810;2023-05-25T07:39:40;98938.41;;;13.67;100.00
1616;BME280;801;47.982;7.810;2023-05-25T07:42:06;98955.09;;;14.05;100.00
1616;BME280;801;47.982;7.810;2023-05-25T07:44:33;98949.84;;;14.34;100.00
1616;BME280;801;47.982;7.810;2023-05-25T07:46:59;98954.38;;;14.54;100.00
1616;BME280;801;47.982;7.810;2023-05-25T07:49:26;98955.81;;;14.91;100.00
1616;BME280;801;47.982;7.810;2023-05-25T07:51:52;98951.03;;;14.83;100.00
1616;BME280;801;47.982;7.810;2023-05-25T07:54:20;98958.06;;;15.18;100.00
1616;BME280;801;47.982;7.810;2023-05-25T07:56:47;98955.66;;;15.17;100.00
1616;BME280;801;47.982;7.810;2023-05-25T07:59:13;98960.22;;;14.82;100.00
1616;BME280;801;47.982;7.810;2023-05-25T08:01:40;98961.63;;;14.69;100.00
1616;BME280;801;47.982;7.810;2023-05-25T08:04:06;98955.59;;;14.82;100.00
1616;BME280;801;47.982;7.810;2023-05-25T08:06:32;98956.66;;;14.91;100.00
1616;BME280;801;47.982;7.810;2023-05-25T08:08:59;98955.84;;;14.86;100.00
1616;BME280;801;47.982;7.810;2023-05-25T08:11:27;98965.16;;;14.64;100.00
1616;BME280;801;47.982;7.810;2023-05-25T08:13:55;98959.50;;;14.56;100.00
1616;BME280;801;47.982;7.810;2023-05-25T08:16:22;98951.94;;;14.52;100.00
1616;BME280;801;47.982;7.810;2023-05-25T08:18:48;98950.06;;;14.48;100.00
1616;BME280;801;47.982;7.810;2023-05-25T08:21:15;98957.03;;;14.69;100.00
1616;BME280;801;47.982;7.810;2023-05-25T08:23:42;98951.13;;;14.57;100.00
1616;BME280;801;47.982;7.810;2023-05-25T08:26:09;98947.75;;;14.86;100.00
1616;BME280;801;47.982;7.810;2023-05-25T08:28:36;98938.69;;;15.06;100.00
1616;BME280;801;47.982;7.810;2023-05-25T08:31:03;98941.28;;;15.21;100.00
1616;BME280;801;47.982;7.810;2023-05-25T08:33:30;98939.00;;;15.33;100.00
1616;BME280;801;47.982;7.810;2023-05-25T08:35:56;98938.84;;;15.20;100.00
1616;BME280;801;47.982;7.810;2023-05-25T08:38:23;98928.84;;;15.54;100.00
1616;BME280;801;47.982;7.810;2023-05-25T08:41:01;98937.22;;;15.87;100.00
1616;BME280;801;47.982;7.810;2023-05-25T08:43:28;98931.22;;;15.90;100.00
1616;BME280;801;47.982;7.810;2023-05-25T08:45:59;98944.97;;;16.23;100.00
1616;BME280;801;47.982;7.810;2023-05-25T08:48:29;98937.88;;;16.27;100.00
1616;BME280;801;47.982;7.810;2023-05-25T08:50:58;98944.59;;;16.54;100.00
1616;BME280;801;47.982;7.810;2023-05-25T08:53:27;98940.28;;;16.72;100.00
1616;BME280;801;47.982;7.810;2023-05-25T08:55:56;98944.28;;;17.17;100.00
1616;BME280;801;47.982;7.810;2023-05-25T08:58:30;98943.22;;;17.32;99.30
1616;BME280;801;47.982;7.810;2023-05-25T09:01:02;98941.56;;;16.98;99.97
1616;BME280;801;47.982;7.810;2023-05-25T09:03:31;98934.22;;;17.18;100.00
1616;BME280;801;47.982;7.810;2023-05-25T09:05:58;98932.72;;;17.45;99.27
1616;BME280;801;47.982;7.810;2023-05-25T09:08:25;98950.88;;;17.63;98.43
1616;BME280;801;47.982;7.810;2023-05-25T09:10:52;98934.78;;;17.34;98.78
1616;BME280;801;47.982;7.810;2023-05-25T09:13:20;98936.63;;;17.38;99.09
1616;BME280;801;47.982;7.810;2023-05-25T09:15:47;98931.97;;;17.91;100.00
1616;BME280;801;47.982;7.810;2023-05-25T09:18:15;98941.59;;;17.83;97.64
1616;BME280;801;47.982;7.810;2023-05-25T09:20:42;98941.63;;;17.97;97.08
1616;BME280;801;47.982;7.810;2023-05-25T09:23:09;98944.88;;;18.27;95.34
1616;BME280;801;47.982;7.810;2023-05-25T09:25:36;98945.06;;;18.30;94.47
1616;BME280;801;47.982;7.810;2023-05-25T09:28:06;98955.03;;;18.49;93.35
1616;BME280;801;47.982;7.810;2023-05-25T09:30:34;98958.94;;;18.70;92.60
1616;BME280;801;47.982;7.810;2023-05-25T09:33:09;98955.13;;;18.71;93.55
1616;BME280;801;47.982;7.810;2023-05-25T09:35:38;98947.63;;;18.91;96.45
1616;BME280;801;47.982;7.810;2023-05-25T09:38:05;98949.06;;;19.47;92.78
1616;BME280;801;47.982;7.810;2023-05-25T09:40:32;98954.25;;;19.57;92.64
1616;BME280;801;47.982;7.810;2023-05-25T09:43:00;98957.09;;;19.75;90.37
1616;BME280;801;47.982;7.810;2023-05-25T09:45:27;98963.84;;;20.08;89.91
1616;BME280;801;47.982;7.810;2023-05-25T09:47:54;98946.31;;;20.32;87.07
1616;BME280;801;47.982;7.810;2023-05-25T09:50:20;98961.03;;;20.71;85.19
1616;BME280;801;47.982;7.810;2023-05-25T09:52:48;98971.03;;;20.84;83.26
1616;BME280;801;47.982;7.810;2023-05-25T09:55:17;98967.38;;;21.32;80.72
1616;BME280;801;47.982;7.810;2023-05-25T09:57:43;98974.25;;;21.65;77.38
1616;BME280;801;47.982;7.810;2023-05-25T10:00:11;98967.69;;;21.48;78.39
1616;BME280;801;47.982;7.810;2023-05-25T10:02:39;98974.63;;;21.54;79.35
1616;BME280;801;47.982;7.810;2023-05-25T10:05:07;98974.59;;;21.20;79.50
1616;BME280;801;47.982;7.810;2023-05-25T10:07:33;98973.31;;;21.17;81.80
1616;BME280;801;47.982;7.810;2023-05-25T10:10:05;98976.22;;;21.55;80.95
1616;BME280;801;47.982;7.810;2023-05-25T10:12:32;98982.13;;;21.84;79.83
1616;BME280;801;47.982;7.810;2023-05-25T10:15:02;98977.69;;;22.09;74.82
1616;BME280;801;47.982;7.810;2023-05-25T10:17:30;98981.50;;;21.69;74.50
1616;BME280;801;47.982;7.810;2023-05-25T10:19:59;98978.34;;;22.06;74.80
1616;BME280;801;47.982;7.810;2023-05-25T10:22:31;98972.84;;;22.23;73.48
1616;BME280;801;47.982;7.810;2023-05-25T10:25:02;98976.78;;;22.43;75.35
1616;BME280;801;47.982;7.810;2023-05-25T10:27:37;98988.47;;;22.52;74.12
1616;BME280;801;47.982;7.810;2023-05-25T10:30:05;98984.97;;;22.43;71.77
1616;BME280;801;47.982;7.810;2023-05-25T10:32:35;98988.06;;;22.42;73.50
1616;BME280;801;47.982;7.810;2023-05-25T10:35:04;98991.31;;;22.35;71.68
1616;BME280;801;47.982;7.810;2023-05-25T10:37:32;98986.69;;;22.18;71.62
1616;BME280;801;47.982;7.810;2023-05-25T10:40:00;98985.59;;;22.10;71.82
1616;BME280;801;47.982;7.810;2023-05-25T10:42:27;98985.69;;;22.61;70.09
1616;BME280;801;47.982;7.810;2023-05-25T10:44:55;98985.09;;;22.55;69.97
1616;BME280;801;47.982;7.810;2023-05-25T10:47:23;98989.16;;;22.49;69.91
1616;BME280;801;47.982;7.810;2023-05-25T10:49:51;98987.34;;;22.15;71.03
1616;BME280;801;47.982;7.810;2023-05-25T10:52:18;98983.63;;;22.20;72.92
1616;BME280;801;47.982;7.810;2023-05-25T10:54:45;98996.00;;;22.26;69.46
1616;BME280;801;47.982;7.810;2023-05-25T10:57:17;98996.06;;;22.55;69.61
1616;BME280;801;47.982;7.810;2023-05-25T10:59:47;99005.56;;;22.79;70.10
1616;BME280;801;47.982;7.810;2023-05-25T11:02:16;99010.81;;;22.93;68.78
1616;BME280;801;47.982;7.810;2023-05-25T11:04:46;99013.09;;;22.91;68.57
1616;BME280;801;47.982;7.810;2023-05-25T11:07:13;99006.59;;;23.25;67.79
1616;BME280;801;47.982;7.810;2023-05-25T11:09:42;99015.34;;;23.60;69.26
1616;BME280;801;47.982;7.810;2023-05-25T11:12:27;99014.28;;;22.81;67.89
1616;BME280;801;47.982;7.810;2023-05-25T11:15:08;99008.69;;;22.98;64.30
1616;BME280;801;47.982;7.810;2023-05-25T11:17:57;99001.63;;;23.39;64.28
1616;BME280;801;47.982;7.810;2023-05-25T11:20:26;99010.28;;;23.29;63.02
1616;BME280;801;47.982;7.810;2023-05-25T11:22:56;99004.91;;;23.33;62.75
1616;BME280;801;47.982;7.810;2023-05-25T11:25:36;99003.53;;;23.27;63.54
1616;BME280;801;47.982;7.810;2023-05-25T11:28:03;99009.56;;;23.20;63.69
1616;BME280;801;47.982;7.810;2023-05-25T11:30:31;99004.00;;;23.29;64.82
1616;BME280;801;47.982;7.810;2023-05-25T11:33:01;99015.72;;;23.71;63.82
1616;BME280;801;47.982;7.810;2023-05-25T11:35:29;99009.06;;;23.93;64.13
1616;BME280;801;47.982;7.810;2023-05-25T11:37:58;99006.91;;;23.24;64.62
1616;BME280;801;47.982;7.810;2023-05-25T11:40:28;98995.53;;;23.13;66.65
1616;BME280;801;47.982;7.810;2023-05-25T11:42:55;99006.56;;;23.46;65.77
1616;BME280;801;47.982;7.810;2023-05-25T11:45:27;98997.25;;;22.96;63.65
1616;BME280;801;47.982;7.810;2023-05-25T11:47:54;99001.50;;;23.15;67.53
1616;BME280;801;47.982;7.810;2023-05-25T11:50:22;98995.41;;;23.30;65.95
1616;BME280;801;47.982;7.810;2023-05-25T11:52:49;98996.59;;;22.40;66.75
1616;BME280;801;47.982;7.810;2023-05-25T11:55:15;98996.63;;;22.31;69.66
1616;BME280;801;47.982;7.810;2023-05-25T11:57:42;99001.00;;;22.24;69.38
1616;BME280;801;47.982;7.810;2023-05-25T12:00:09;99007.91;;;22.30;73.70
1616;BME280;801;47.982;7.810;2023-05-25T12:02:37;98998.88;;;22.38;73.04
1616;BME280;801;47.982;7.810;2023-05-25T12:05:04;99003.19;;;22.39;68.46
1616;BME280;801;47.982;7.810;2023-05-25T12:07:33;99000.28;;;22.44;68.99
1616;BME280;801;47.982;7.810;2023-05-25T12:10:04;99006.34;;;22.58;69.09
1616;BME280;801;47.982;7.810;2023-05-25T12:12:37;98998.44;;;22.57;68.91
1616;BME280;801;47.982;7.810;2023-05-25T12:15:04;98994.50;;;22.96;69.69
1616;BME280;801;47.982;7.810;2023-05-25T12:17:32;99004.53;;;22.92;66.21
1616;BME280;801;47.982;7.810;2023-05-25T12:19:59;99004.63;;;22.75;65.80
1616;BME280;801;47.982;7.810;2023-05-25T12:22:25;99002.38;;;22.47;67.12
1616;BME280;801;47.982;7.810;2023-05-25T12:24:53;99011.69;;;23.35;67.27
1616;BME280;801;47.982;7.810;2023-05-25T12:27:20;99001.06;;;23.67;65.90
1616;BME280;801;47.982;7.810;2023-05-25T12:29:48;98999.84;;;24.10;66.00
1616;BME280;801;47.982;7.810;2023-05-25T12:32:17;98999.88;;;23.77;63.82
1616;BME280;801;47.982;7.810;2023-05-25T12:34:43;98994.59;;;24.05;64.52
1616;BME280;801;47.982;7.810;2023-05-25T12:37:20;99004.41;;;24.06;63.40
1616;BME280;801;47.982;7.810;2023-05-25T12:39:47;99007.94;;;24.52;60.89
1616;BME280;801;47.982;7.810;2023-05-25T12:42:16;99005.16;;;24.64;60.11
1616;BME280;801;47.982;7.810;2023-05-25T12:44:44;99006.34;;;24.63;59.09
1616;BME280;801;47.982;7.810;2023-05-25T12:47:12;99001.97;;;24.62;60.43
1616;BME280;801;47.982;7.810;2023-05-25T12:49:41;99007.94;;;24.77;60.19
1616;BME280;801;47.982;7.810;2023-05-25T12:52:09;99006.72;;;24.16;61.11
1616;BME280;801;47.982;7.810;2023-05-25T12:54:41;99006.78;;;24.65;62.59
1616;BME280;801;47.982;7.810;2023-05-25T12:57:09;99006.06;;;24.44;58.80
1616;BME280;801;47.982;7.810;2023-05-25T12:59:39;99008.63;;;23.91;62.31
1616;BME280;801;47.982;7.810;2023-05-25T13:02:06;99007.47;;;23.92;63.55
1616;BME280;801;47.982;7.810;2023-05-25T13:04:33;99018.59;;;23.96;60.04
1616;BME280;801;47.982;7.810;2023-05-25T13:07:00;99002.75;;;24.38;66.25
1616;BME280;801;47.982;7.810;2023-05-25T13:09:27;99009.47;;;24.16;60.22
1616;BME280;801;47.982;7.810;2023-05-25T13:11:54;99004.88;;;23.96;60.12
1616;BME280;801;47.982;7.810;2023-05-25T13:14:21;98999.84;;;23.98;60.91
1616;BME280;801;47.982;7.810;2023-05-25T13:16:50;99000.34;;;24.37;58.87
1616;BME280;801;47.982;7.810;2023-05-25T13:19:17;98997.97;;;24.60;61.23
1616;BME280;801;47.982;7.810;2023-05-25T13:21:44;99001.72;;;24.43;60.30
1616;BME280;801;47.982;7.810;2023-05-25T13:24:12;98991.66;;;24.22;60.53
1616;BME280;801;47.982;7.810;2023-05-25T13:26:38;98988.34;;;24.29;60.44
1616;BME280;801;47.982;7.810;2023-05-25T13:29:05;98999.00;;;23.97;60.26
1616;BME280;801;47.982;7.810;2023-05-25T13:31:31;98988.03;;;24.68;61.72